createdAt,value
2017-05-31T00:00:46.196Z,9.10
2017-05-31T00:03:13.181Z,10.50
2017-05-31T00:05:40.139Z,9.94
2017-05-31T00:08:07.105Z,9.70
2017-05-31T00:10:34.105Z,9.66
2017-05-31T00:13:01.409Z,10.58
2017-05-31T00:15:28.635Z,9.46
2017-05-31T00:17:55.985Z,10.20
2017-05-31T00:20:23.212Z,10.10
2017-05-31T00:22:50.378Z,10.92
2017-05-31T00:25:17.621Z,10.46
2017-05-31T00:27:44.888Z,10.72
2017-05-31T00:30:12.101Z,10.28
2017-05-31T00:32:39.695Z,10.18
2017-05-31T00:35:06.658Z,10.64
2017-05-31T00:37:33.595Z,13.96
2017-05-31T00:40:15.533Z,9.86
2017-05-31T00:42:42.488Z,9.52
2017-05-31T00:45:09.473Z,11.14
2017-05-31T00:47:36.419Z,9.82
2017-05-31T00:50:03.443Z,11.08
2017-05-31T00:52:30.377Z,10.22
2017-05-31T00:54:57.343Z,10.66
2017-05-31T00:57:24.290Z,10.70
2017-05-31T00:59:51.251Z,9.98
2017-05-31T01:02:18.190Z,10.62
2017-05-31T01:04:45.141Z,11.84
2017-05-31T01:07:12.088Z,10.74
2017-05-31T01:09:39.282Z,9.88
2017-05-31T01:12:06.256Z,11.92
2017-05-31T01:14:33.376Z,11.08
2017-05-31T01:17:00.341Z,11.34
2017-05-31T01:19:27.374Z,11.86
2017-05-31T01:21:54.329Z,10.38
2017-05-31T01:24:21.274Z,12.90
2017-05-31T01:26:48.222Z,9.76
2017-05-31T01:29:15.634Z,9.78
2017-05-31T01:31:42.613Z,10.82
2017-05-31T01:34:09.572Z,10.16
2017-05-31T01:36:36.556Z,9.88
2017-05-31T01:39:03.548Z,11.22
2017-05-31T01:41:30.540Z,9.70
2017-05-31T01:43:57.541Z,10.32
2017-05-31T01:46:24.499Z,9.88
2017-05-31T01:48:51.482Z,10.06
2017-05-31T01:51:18.454Z,10.72
2017-05-31T01:53:45.409Z,12.30
2017-05-31T01:56:19.389Z,10.60
2017-05-31T01:58:46.350Z,10.10
2017-05-31T02:01:13.288Z,10.30
2017-05-31T02:03:40.259Z,9.70
2017-05-31T02:06:07.200Z,10.44
2017-05-31T02:08:34.163Z,10.38
2017-05-31T02:13:44.683Z,10.20
2017-05-31T02:16:11.618Z,10.04
2017-05-31T02:18:38.590Z,12.80
2017-05-31T02:21:05.555Z,9.60
2017-05-31T02:23:32.493Z,9.46
2017-05-31T02:25:59.460Z,9.92
2017-05-31T02:28:26.398Z,10.12
2017-05-31T02:30:53.360Z,9.96
2017-05-31T02:33:20.303Z,9.70
2017-05-31T02:35:47.261Z,10.64
2017-05-31T02:38:14.206Z,9.08
2017-05-31T02:40:41.187Z,10.14
2017-05-31T02:43:08.134Z,8.58
2017-05-31T02:45:35.097Z,10.48
2017-05-31T02:48:02.048Z,10.26
2017-05-31T02:50:28.997Z,10.14
2017-05-31T02:52:55.970Z,10.64
2017-05-31T02:55:22.910Z,10.40
2017-05-31T02:57:49.874Z,9.80
2017-05-31T03:00:16.824Z,9.68
2017-05-31T03:02:43.793Z,9.18
2017-05-31T03:05:10.727Z,8.78
2017-05-31T03:07:37.752Z,9.10
2017-05-31T03:10:04.729Z,9.60
2017-05-31T03:12:31.746Z,8.74
2017-05-31T03:14:58.702Z,9.50
2017-05-31T03:17:25.697Z,9.64
2017-05-31T03:19:52.658Z,10.32
2017-05-31T03:22:19.615Z,9.78
2017-05-31T03:24:46.586Z,9.80
2017-05-31T03:27:13.543Z,9.40
2017-05-31T03:29:40.526Z,9.30
2017-05-31T03:32:07.474Z,9.26
2017-05-31T03:34:34.456Z,9.48
2017-05-31T03:37:01.400Z,9.90
2017-05-31T03:39:28.388Z,11.48
2017-05-31T03:41:55.334Z,10.12
2017-05-31T03:44:22.305Z,10.70
2017-05-31T03:46:49.261Z,13.10
2017-05-31T03:49:16.253Z,10.98
2017-05-31T03:51:43.256Z,9.68
2017-05-31T03:54:10.213Z,11.30
2017-05-31T03:56:37.196Z,10.06
2017-05-31T03:59:04.148Z,9.88
2017-05-31T04:01:31.141Z,9.94
2017-05-31T04:03:58.238Z,10.86
2017-05-31T04:06:25.231Z,9.24
2017-05-31T04:08:52.180Z,9.64
2017-05-31T04:11:19.194Z,8.46
2017-05-31T04:13:46.153Z,9.14
2017-05-31T04:16:13.130Z,8.32
2017-05-31T04:18:40.093Z,8.96
2017-05-31T04:21:07.078Z,10.66
2017-05-31T04:23:34.036Z,10.38
2017-05-31T04:26:01.009Z,10.28
2017-05-31T04:28:27.952Z,10.54
2017-05-31T04:30:54.965Z,10.90
2017-05-31T04:33:21.923Z,12.08
2017-05-31T04:35:48.916Z,11.70
2017-05-31T04:38:15.862Z,11.44
2017-05-31T04:40:42.833Z,19.68
2017-05-31T04:43:09.826Z,12.86
2017-05-31T04:45:36.776Z,11.08
2017-05-31T04:48:03.790Z,12.54
2017-05-31T04:50:30.751Z,13.12
2017-05-31T04:52:57.728Z,14.02
2017-05-31T04:55:24.687Z,13.20
2017-05-31T04:57:51.664Z,14.74
2017-05-31T05:00:18.624Z,15.92
2017-05-31T05:02:45.608Z,13.20
2017-05-31T05:05:12.560Z,13.50
2017-05-31T05:07:39.534Z,16.18
2017-05-31T05:10:06.532Z,13.20
2017-05-31T05:12:33.483Z,14.52
2017-05-31T05:15:00.462Z,13.72
2017-05-31T05:17:27.415Z,13.10
2017-05-31T05:19:54.386Z,13.10
2017-05-31T05:22:21.343Z,14.00
2017-05-31T05:24:48.316Z,14.46
2017-05-31T05:27:15.290Z,13.10
2017-05-31T05:29:42.677Z,13.46
2017-05-31T05:32:09.633Z,12.50
2017-05-31T05:34:36.619Z,13.02
2017-05-31T05:37:03.577Z,11.50
2017-05-31T05:39:30.553Z,12.56
2017-05-31T05:41:57.509Z,12.58
2017-05-31T05:44:24.591Z,14.22
2017-05-31T05:46:51.540Z,10.98
2017-05-31T05:49:18.513Z,11.44
2017-05-31T05:51:45.501Z,11.86
2017-05-31T05:54:12.466Z,11.88
2017-05-31T05:56:39.437Z,12.94
2017-05-31T05:59:06.427Z,13.24
2017-05-31T06:01:33.406Z,16.32
2017-05-31T06:04:00.373Z,15.56
2017-05-31T06:06:27.344Z,17.16
2017-05-31T06:08:54.309Z,19.52
2017-05-31T06:11:21.316Z,18.58
2017-05-31T06:13:48.259Z,14.64
2017-05-31T06:16:15.239Z,15.12
2017-05-31T06:18:42.173Z,15.08
2017-05-31T06:21:09.104Z,17.38
2017-05-31T06:23:36.078Z,15.50
2017-05-31T06:26:03.040Z,17.28
2017-05-31T06:28:30.014Z,19.68
2017-05-31T06:30:56.956Z,18.26
2017-05-31T06:33:23.918Z,16.26
2017-05-31T06:35:50.868Z,14.08
2017-05-31T06:38:17.839Z,13.44
2017-05-31T06:40:44.780Z,15.74
2017-05-31T06:43:11.713Z,12.02
2017-05-31T06:45:38.665Z,13.78
2017-05-31T06:48:05.600Z,16.62
2017-05-31T06:50:32.569Z,12.76
2017-05-31T06:52:59.512Z,16.16
2017-05-31T06:55:26.479Z,12.14
2017-05-31T06:57:53.421Z,13.04
2017-05-31T07:00:20.386Z,13.08
2017-05-31T07:02:47.331Z,12.54
2017-05-31T07:05:14.294Z,13.22
2017-05-31T07:07:41.354Z,13.56
2017-05-31T07:10:08.336Z,15.88
2017-05-31T07:12:35.310Z,19.14
2017-05-31T07:15:02.290Z,13.56
2017-05-31T07:17:29.282Z,19.16
2017-05-31T07:19:56.253Z,14.62
2017-05-31T07:22:23.359Z,21.02
2017-05-31T07:24:50.316Z,17.38
2017-05-31T07:27:17.306Z,18.80
2017-05-31T07:29:44.273Z,16.66
2017-05-31T07:32:11.271Z,14.70
2017-05-31T07:34:38.240Z,14.16
2017-05-31T07:37:05.226Z,13.28
2017-05-31T07:39:32.232Z,12.98
2017-05-31T07:41:59.181Z,13.92
2017-05-31T07:44:26.168Z,13.10
2017-05-31T07:46:53.114Z,13.12
2017-05-31T07:49:20.077Z,14.62
2017-05-31T07:51:47.155Z,13.56
2017-05-31T07:54:14.123Z,14.04
2017-05-31T07:56:41.061Z,13.84
2017-05-31T07:59:08.022Z,13.40
2017-05-31T08:01:34.965Z,14.82
2017-05-31T08:04:01.928Z,12.30
2017-05-31T08:06:28.871Z,14.62
2017-05-31T08:08:55.912Z,17.98
2017-05-31T08:11:22.891Z,13.70
2017-05-31T08:13:49.845Z,15.20
2017-05-31T08:16:16.820Z,16.86
2017-05-31T08:18:43.798Z,14.18
2017-05-31T08:21:10.780Z,14.02
2017-05-31T08:23:44.649Z,14.58
2017-05-31T08:26:11.641Z,10.98
2017-05-31T08:28:38.599Z,11.82
2017-05-31T08:31:05.588Z,12.10
2017-05-31T08:33:32.540Z,13.30
2017-05-31T08:35:59.517Z,13.12
2017-05-31T08:38:26.482Z,12.26
2017-05-31T08:40:53.461Z,10.92
2017-05-31T08:43:20.428Z,9.58
2017-05-31T08:45:47.418Z,9.70
2017-05-31T08:48:14.381Z,10.66
2017-05-31T08:50:41.338Z,11.06
2017-05-31T08:53:08.317Z,11.40
2017-05-31T08:55:35.272Z,10.84
2017-05-31T08:58:02.253Z,10.88
2017-05-31T09:00:29.213Z,11.98
2017-05-31T09:02:56.186Z,11.86
2017-05-31T09:05:23.141Z,11.26
2017-05-31T09:07:50.115Z,11.42
2017-05-31T09:10:17.097Z,13.20
2017-05-31T09:12:44.090Z,12.58
2017-05-31T09:15:11.058Z,10.52
2017-05-31T09:17:38.050Z,11.46
2017-05-31T09:20:05.012Z,9.48
2017-05-31T09:22:31.993Z,9.28
2017-05-31T09:24:58.962Z,9.76
2017-05-31T09:27:25.941Z,11.14
2017-05-31T09:29:52.893Z,10.10
2017-05-31T09:32:19.893Z,9.90
2017-05-31T09:34:47.081Z,10.68
2017-05-31T09:37:14.046Z,9.18
2017-05-31T09:39:41.022Z,10.44
2017-05-31T09:42:07.988Z,12.92
2017-05-31T09:44:34.969Z,12.14
2017-05-31T09:47:02.146Z,13.64
2017-05-31T09:49:29.129Z,9.82
2017-05-31T09:51:56.189Z,10.06
2017-05-31T09:54:23.317Z,9.10
2017-05-31T09:56:50.289Z,9.96
2017-05-31T09:59:17.278Z,9.02
2017-05-31T10:01:44.262Z,8.56
2017-05-31T10:04:11.241Z,8.74
2017-05-31T10:06:38.493Z,8.26
2017-05-31T10:09:05.525Z,7.84
2017-05-31T10:11:32.524Z,9.38
2017-05-31T10:13:59.517Z,9.58
2017-05-31T10:16:26.521Z,10.12
2017-05-31T10:18:53.509Z,10.00
2017-05-31T10:21:20.534Z,13.00
2017-05-31T10:23:47.493Z,9.44
2017-05-31T10:26:14.478Z,9.06
2017-05-31T10:28:41.443Z,8.90
2017-05-31T10:31:08.431Z,10.96
2017-05-31T10:33:35.400Z,9.92
2017-05-31T10:36:02.382Z,10.88
2017-05-31T10:38:29.348Z,9.04
2017-05-31T10:40:56.333Z,8.44
2017-05-31T10:43:23.318Z,7.14
2017-05-31T10:45:50.285Z,7.56
2017-05-31T10:48:17.273Z,10.94
2017-05-31T10:50:44.251Z,7.02
2017-05-31T10:53:11.236Z,7.56
2017-05-31T10:55:38.205Z,7.52
2017-05-31T10:58:05.186Z,9.10
2017-05-31T11:00:32.152Z,7.18
2017-05-31T11:02:59.153Z,6.60
2017-05-31T11:05:26.114Z,6.92
2017-05-31T11:07:53.073Z,6.90
2017-05-31T11:10:20.062Z,5.96
2017-05-31T11:12:47.015Z,6.28
2017-05-31T11:15:14.014Z,7.80
2017-05-31T11:17:40.981Z,6.48
2017-05-31T11:20:07.962Z,6.34
2017-05-31T11:22:34.921Z,7.00
2017-05-31T11:25:01.906Z,6.62
2017-05-31T11:27:28.878Z,6.06
2017-05-31T11:29:55.859Z,7.42
2017-05-31T11:32:22.826Z,7.12
2017-05-31T11:34:49.805Z,8.34
2017-05-31T11:37:16.832Z,7.20
2017-05-31T11:39:43.789Z,6.02
2017-05-31T11:42:10.755Z,6.50
2017-05-31T11:44:37.718Z,7.06
2017-05-31T11:47:04.705Z,7.16
2017-05-31T11:49:31.666Z,8.18
2017-05-31T11:51:58.652Z,6.44
2017-05-31T11:54:25.624Z,7.36
2017-05-31T11:56:52.609Z,8.10
2017-05-31T11:59:19.581Z,8.64
2017-05-31T12:01:46.564Z,7.30
2017-05-31T12:04:13.526Z,5.60
2017-05-31T12:06:40.500Z,6.18
2017-05-31T12:09:07.474Z,7.22
2017-05-31T12:11:34.465Z,6.64
2017-05-31T12:14:01.425Z,7.66
2017-05-31T12:16:28.389Z,7.02
2017-05-31T12:18:55.369Z,8.74
2017-05-31T12:21:22.336Z,6.20
2017-05-31T12:23:49.324Z,11.02
2017-05-31T12:26:16.285Z,8.50
2017-05-31T12:28:43.275Z,8.74
2017-05-31T12:31:10.237Z,7.56
2017-05-31T12:33:37.218Z,6.50
2017-05-31T12:36:04.174Z,6.70
2017-05-31T12:38:37.298Z,7.18
2017-05-31T12:41:04.264Z,6.12
2017-05-31T12:43:31.245Z,5.18
2017-05-31T12:45:58.202Z,6.80
2017-05-31T12:48:25.167Z,7.02
2017-05-31T12:50:52.154Z,6.70
2017-05-31T12:53:19.119Z,7.26
2017-05-31T12:55:46.103Z,6.10
2017-05-31T12:58:13.072Z,6.54
2017-05-31T13:00:40.297Z,5.86
2017-05-31T13:03:07.262Z,6.66
2017-05-31T13:05:34.248Z,6.48
2017-05-31T13:08:01.214Z,6.68
2017-05-31T13:10:28.197Z,7.28
2017-05-31T13:12:55.167Z,5.80
2017-05-31T13:15:22.153Z,6.84
2017-05-31T13:17:49.119Z,5.30
2017-05-31T13:20:16.101Z,6.06
2017-05-31T13:22:43.071Z,6.02
2017-05-31T13:25:10.037Z,5.32
2017-05-31T13:27:37.021Z,4.76
2017-05-31T13:30:03.986Z,8.18
2017-05-31T13:32:30.963Z,6.52
2017-05-31T13:34:57.939Z,5.40
2017-05-31T13:37:24.921Z,5.36
2017-05-31T13:39:51.881Z,8.54
2017-05-31T13:42:18.856Z,4.98
2017-05-31T13:44:45.824Z,6.72
2017-05-31T13:47:12.814Z,5.16
2017-05-31T13:49:39.783Z,7.66
2017-05-31T13:52:06.765Z,6.50
2017-05-31T13:54:33.766Z,5.82
2017-05-31T13:57:00.765Z,7.40
2017-05-31T13:59:27.732Z,6.82
2017-05-31T14:01:54.701Z,9.52
2017-05-31T14:04:21.691Z,5.60
2017-05-31T14:06:48.653Z,7.42
2017-05-31T14:09:15.638Z,7.78
2017-05-31T14:11:42.597Z,5.52
2017-05-31T14:14:09.589Z,7.12
2017-05-31T14:16:36.552Z,5.32
2017-05-31T14:19:03.542Z,5.28
2017-05-31T14:21:30.503Z,6.10
2017-05-31T14:23:57.496Z,7.28
2017-05-31T14:26:24.463Z,6.70
2017-05-31T14:28:51.456Z,5.70
2017-05-31T14:31:18.421Z,5.46
2017-05-31T14:33:45.381Z,4.68
2017-05-31T14:36:12.371Z,5.82
2017-05-31T14:38:39.343Z,7.36
2017-05-31T14:41:06.338Z,9.64
2017-05-31T14:43:33.298Z,5.08
2017-05-31T14:46:00.289Z,4.90
2017-05-31T14:48:27.265Z,4.94
2017-05-31T14:50:54.254Z,5.20
2017-05-31T14:53:21.242Z,4.12
2017-05-31T14:55:48.259Z,6.42
2017-05-31T14:58:15.215Z,6.64
2017-05-31T15:00:42.185Z,4.00
2017-05-31T15:03:09.173Z,6.02
2017-05-31T15:05:36.131Z,5.78
2017-05-31T15:08:03.111Z,5.48
2017-05-31T15:10:30.074Z,6.30
2017-05-31T15:12:57.203Z,5.06
2017-05-31T15:15:24.170Z,5.76
2017-05-31T15:17:51.182Z,9.40
2017-05-31T15:20:18.158Z,4.40
2017-05-31T15:22:45.900Z,4.66
2017-05-31T15:25:12.956Z,4.04
2017-05-31T15:27:39.923Z,4.78
2017-05-31T15:30:07.013Z,4.18
2017-05-31T15:32:33.992Z,4.28
2017-05-31T15:35:01.084Z,4.52
2017-05-31T15:37:28.062Z,3.70
2017-05-31T15:39:55.066Z,4.96
2017-05-31T15:42:22.038Z,4.90
2017-05-31T15:44:49.122Z,5.70
2017-05-31T15:47:16.085Z,5.58
2017-05-31T15:49:43.133Z,3.74
2017-05-31T15:52:10.122Z,4.24
2017-05-31T15:54:37.191Z,3.88
2017-05-31T15:57:04.271Z,3.80
2017-05-31T15:59:31.369Z,6.20
2017-05-31T16:01:58.392Z,3.78
2017-05-31T16:04:25.411Z,3.68
2017-05-31T16:06:52.519Z,3.58
2017-05-31T16:09:19.592Z,3.60
2017-05-31T16:11:46.592Z,3.96
2017-05-31T16:14:13.618Z,4.18
2017-05-31T16:16:40.572Z,3.32
2017-05-31T16:19:07.646Z,3.88
2017-05-31T16:21:34.601Z,4.12
2017-05-31T16:24:01.602Z,5.00
2017-05-31T16:26:28.582Z,5.64
2017-05-31T16:28:55.646Z,6.90
2017-05-31T16:31:22.687Z,5.34
2017-05-31T16:33:49.729Z,6.54
2017-05-31T16:36:16.693Z,5.04
2017-05-31T16:38:43.683Z,6.40
2017-05-31T16:41:10.645Z,6.90
2017-05-31T16:43:37.638Z,6.28
2017-05-31T16:46:04.600Z,5.84
2017-05-31T16:48:31.556Z,5.68
2017-05-31T16:50:58.549Z,6.00
2017-05-31T16:53:25.513Z,6.20
2017-05-31T16:55:52.502Z,9.62
2017-05-31T16:58:19.619Z,7.26
2017-05-31T17:00:46.606Z,6.44
2017-05-31T17:03:13.566Z,6.86
2017-05-31T17:05:40.550Z,7.58
2017-05-31T17:08:07.509Z,5.90
2017-05-31T17:10:34.492Z,5.14
2017-05-31T17:13:01.447Z,4.66
2017-05-31T17:15:28.443Z,5.70
2017-05-31T17:17:55.406Z,7.44
2017-05-31T17:20:22.389Z,6.16
2017-05-31T17:22:49.392Z,5.54
2017-05-31T17:25:16.356Z,5.90
2017-05-31T17:27:43.336Z,6.44
2017-05-31T17:30:10.310Z,6.62
2017-05-31T17:32:37.302Z,5.76
2017-05-31T17:35:04.259Z,5.64
2017-05-31T17:37:31.257Z,5.34
2017-05-31T17:39:58.243Z,5.00
2017-05-31T17:42:25.224Z,4.48
2017-05-31T17:44:52.181Z,4.32
2017-05-31T17:49:56.230Z,7.44
2017-05-31T17:52:23.193Z,4.44
2017-05-31T17:54:50.174Z,4.30
2017-05-31T17:57:17.135Z,5.38
2017-05-31T17:59:44.123Z,4.24
2017-05-31T18:02:11.145Z,5.22
2017-05-31T18:04:38.110Z,5.28
2017-05-31T18:07:05.073Z,6.92
2017-05-31T18:09:32.058Z,6.22
2017-05-31T18:11:59.021Z,6.50
2017-05-31T18:14:26.006Z,4.78
2017-05-31T18:16:52.973Z,4.58
2017-05-31T18:19:19.996Z,4.98
2017-05-31T18:21:46.951Z,5.20
2017-05-31T18:24:13.947Z,4.38
2017-05-31T18:26:40.913Z,5.84
2017-05-31T18:29:07.875Z,4.08
2017-05-31T18:31:34.857Z,4.80
2017-05-31T18:34:01.815Z,3.90
2017-05-31T18:36:28.790Z,4.26
2017-05-31T18:38:55.749Z,3.96
2017-05-31T18:41:22.741Z,5.28
2017-05-31T18:43:49.705Z,3.94
2017-05-31T18:46:16.689Z,4.40
2017-05-31T18:48:43.655Z,5.36
2017-05-31T18:51:10.640Z,4.14
2017-05-31T18:53:37.598Z,3.96
2017-05-31T18:56:04.585Z,4.30
2017-05-31T18:58:31.537Z,4.42
2017-05-31T19:00:58.524Z,7.72
2017-05-31T19:03:25.721Z,4.54
2017-05-31T19:05:52.722Z,4.90
2017-05-31T19:08:20.021Z,5.12
2017-05-31T19:10:47.045Z,7.66
2017-05-31T19:13:14.034Z,9.48
2017-05-31T19:15:40.986Z,5.70
2017-05-31T19:18:07.960Z,4.54
2017-05-31T19:20:34.922Z,6.18
2017-05-31T19:23:01.893Z,7.20
2017-05-31T19:25:28.877Z,4.22
2017-05-31T19:27:55.866Z,7.06
2017-05-31T19:30:22.966Z,5.92
2017-05-31T19:32:49.949Z,5.88
2017-05-31T19:35:16.921Z,5.94
2017-05-31T19:37:43.902Z,6.02
2017-05-31T19:40:10.867Z,5.94
2017-05-31T19:42:37.878Z,6.98
2017-05-31T19:45:04.879Z,6.88
2017-05-31T19:47:31.890Z,6.68
2017-05-31T19:49:58.842Z,8.82
2017-05-31T19:52:25.813Z,7.06
2017-05-31T19:54:52.814Z,7.44
2017-05-31T19:57:19.781Z,7.60
2017-05-31T19:59:46.956Z,7.88
2017-05-31T20:02:13.940Z,7.02
2017-05-31T20:04:40.899Z,8.70
2017-05-31T20:07:07.906Z,8.06
2017-05-31T20:09:34.914Z,6.80
2017-05-31T20:12:01.877Z,8.58
2017-05-31T20:14:28.898Z,9.70
2017-05-31T20:16:55.853Z,10.70
2017-05-31T20:19:22.893Z,9.98
2017-05-31T20:21:49.901Z,10.44
2017-05-31T20:24:16.861Z,12.86
2017-05-31T20:26:43.874Z,11.48
2017-05-31T20:29:10.821Z,11.02
2017-05-31T20:31:37.788Z,11.20
2017-05-31T20:34:04.789Z,12.18
2017-05-31T20:36:31.751Z,11.62
2017-05-31T20:38:58.762Z,11.78
2017-05-31T20:41:25.813Z,12.14
2017-05-31T20:43:52.797Z,10.84
2017-05-31T20:46:19.786Z,10.48
2017-05-31T20:48:46.771Z,13.38
2017-05-31T20:51:13.729Z,12.78
2017-05-31T20:53:40.840Z,12.24
2017-05-31T20:56:07.886Z,14.52
2017-05-31T20:58:34.872Z,13.04
2017-05-31T21:01:01.927Z,12.84
2017-05-31T21:03:28.969Z,12.02
2017-05-31T21:05:56.171Z,10.46
2017-05-31T21:08:23.235Z,10.50
2017-05-31T21:10:50.474Z,12.42
2017-05-31T21:13:17.442Z,15.14
2017-05-31T21:15:44.401Z,12.44
2017-05-31T21:18:11.337Z,15.26
2017-05-31T21:20:38.300Z,12.82
2017-05-31T21:23:05.242Z,14.28
2017-05-31T21:25:32.202Z,15.92
2017-05-31T21:27:59.157Z,17.16
2017-05-31T21:30:26.137Z,13.48
2017-05-31T21:32:53.099Z,14.02
2017-05-31T21:35:20.041Z,14.24
2017-05-31T21:37:47.013Z,14.22
2017-05-31T21:40:13.988Z,12.04
2017-05-31T21:42:41.034Z,8.98
2017-05-31T21:45:07.981Z,9.52
2017-05-31T21:47:35.283Z,9.82
2017-05-31T21:50:02.233Z,9.76
2017-05-31T21:52:29.195Z,10.04
2017-05-31T21:54:56.139Z,10.48
2017-05-31T21:57:23.097Z,10.92
2017-05-31T21:59:50.127Z,10.32
2017-05-31T22:02:17.100Z,10.02
2017-05-31T22:04:44.054Z,9.40
2017-05-31T22:07:11.039Z,14.02
2017-05-31T22:09:38.045Z,9.52
2017-05-31T22:12:05.008Z,8.50
2017-05-31T22:14:31.986Z,9.12
2017-05-31T22:16:58.951Z,9.62
2017-05-31T22:19:25.941Z,10.92
2017-05-31T22:21:52.900Z,12.04
2017-05-31T22:24:19.880Z,12.54
2017-05-31T22:26:46.830Z,11.64
2017-05-31T22:29:13.837Z,12.02
2017-05-31T22:31:41.114Z,12.60
2017-05-31T22:34:08.090Z,12.86
2017-05-31T22:36:35.047Z,14.84
2017-05-31T22:39:02.084Z,11.38
2017-05-31T22:41:29.042Z,12.90
2017-05-31T22:43:56.005Z,12.42
2017-05-31T22:46:22.984Z,11.72
2017-05-31T22:48:49.937Z,10.82
2017-05-31T22:51:16.918Z,10.80
2017-05-31T22:53:43.874Z,9.20
2017-05-31T22:56:10.853Z,10.88
2017-05-31T22:58:37.803Z,8.72
2017-05-31T23:01:04.787Z,8.64
2017-05-31T23:03:31.746Z,9.86
2017-05-31T23:05:58.729Z,9.94
2017-05-31T23:08:25.694Z,10.36
2017-05-31T23:10:52.667Z,10.38
2017-05-31T23:13:19.645Z,9.34
2017-05-31T23:15:46.613Z,9.92
2017-05-31T23:18:13.596Z,10.14
2017-05-31T23:20:40.586Z,10.42
2017-05-31T23:23:07.559Z,10.24
2017-05-31T23:28:08.270Z,11.02
2017-05-31T23:30:35.220Z,10.12
2017-05-31T23:33:02.209Z,10.90
2017-05-31T23:35:29.157Z,13.58
2017-05-31T23:37:56.143Z,10.72
2017-05-31T23:40:23.118Z,10.86
2017-05-31T23:42:50.063Z,11.52
2017-05-31T23:45:17.024Z,9.70
2017-05-31T23:47:43.984Z,10.20
2017-05-31T23:50:10.954Z,10.04
2017-05-31T23:52:37.904Z,9.80
2017-05-31T23:55:04.876Z,10.30
2017-05-31T23:57:31.825Z,9.08
2017-05-31T23:59:58.808Z,13.04
